Time;durP1;ratioP1;P1;durP2;ratioP2;P2;SDS_P1;SDS_P2;PMS_P1;PMS_P2;Temp;Humidity;BMP_temperature;BMP_pressure;BME280_temperature;BME280_humidity;BME280_pressure;Samples;Min_cycle;Max_cycle;Signal;HPM_P1;HPM_P2
2021/06/23 00:02:59;;;;;;;22.80;14.70;;;15.60;99.90;;;;;;6766206;87;20204;-78
2021/06/23 00:13:04;;;;;;;24.30;14.90;;;15.70;99.90;;;;;;6759385;87;20264;-79
2021/06/23 00:23:05;;;;;;;24.08;15.15;;;15.60;99.90;;;;;;6758928;87;20193;-78
2021/06/23 00:33:08;;;;;;;22.08;15.60;;;15.50;99.90;;;;;;6756883;87;20288;-78
2021/06/23 00:43:09;;;;;;;26.37;16.73;;;15.40;99.90;;;;;;6756701;87;20668;-77
2021/06/23 01:03:13;;;;;;;28.48;17.80;;;15.20;99.90;;;;;;6760944;87;20651;-78
2021/06/23 01:13:29;;;;;;;26.27;17.87;;;15.30;99.90;;;;;;6745669;87;20193;-79
2021/06/23 01:23:30;;;;;;;27.52;18.08;;;15.10;99.90;;;;;;6749182;87;20299;-78
2021/06/23 01:33:31;;;;;;;31.97;18.27;;;15.20;99.90;;;;;;6742045;88;20200;-80
2021/06/23 01:43:32;;;;;;;30.25;20.15;;;15.30;99.90;;;;;;6744058;88;20578;-78
2021/06/23 01:53:34;;;;;;;30.92;20.15;;;15.30;99.90;;;;;;6740695;88;20202;-78
2021/06/23 02:03:35;;;;;;;30.80;19.33;;;15.40;99.90;;;;;;6739717;88;20652;-79
2021/06/23 02:14:22;;;;;;;29.40;19.65;;;15.40;99.90;;;;;;6739959;88;20259;-78
2021/06/23 02:24:24;;;;;;;35.20;20.90;;;15.40;99.90;;;;;;6667712;89;20257;-78
2021/06/23 02:34:25;;;;;;;32.25;21.02;;;15.40;99.90;;;;;;6698590;88;20192;-78
2021/06/23 02:44:26;;;;;;;33.42;22.65;;;15.30;99.90;;;;;;6753742;88;20200;-79
2021/06/23 02:54:27;;;;;;;36.75;21.58;;;15.30;99.90;;;;;;6757664;88;20617;-78
2021/06/23 03:04:27;;;;;;;35.25;21.85;;;15.30;99.90;;;;;;6755590;88;20249;-78
2021/06/23 03:14:28;;;;;;;36.00;22.93;;;15.30;99.90;;;;;;6747784;88;20201;-79
2021/06/23 03:24:28;;;;;;;35.00;22.83;;;15.30;99.90;;;;;;6740484;88;21216;-78
2021/06/23 03:34:29;;;;;;;36.45;22.67;;;15.40;99.90;;;;;;6743506;87;20283;-78
2021/06/23 03:44:30;;;;;;;36.90;23.52;;;15.50;99.90;;;;;;6724887;88;20328;-79
2021/06/23 03:54:30;;;;;;;34.87;23.03;;;15.60;99.90;;;;;;6724722;88;20248;-79
2021/06/23 04:04:31;;;;;;;34.38;21.55;;;15.50;99.90;;;;;;6724952;88;20532;-79
2021/06/23 04:14:31;;;;;;;34.22;22.10;;;15.40;99.90;;;;;;6725414;88;20197;-79
2021/06/23 04:24:32;;;;;;;34.53;22.45;;;15.50;99.90;;;;;;6747591;88;20204;-79
2021/06/23 04:34:32;;;;;;;37.45;23.23;;;15.50;99.90;;;;;;6758261;87;20277;-80
2021/06/23 04:44:33;;;;;;;37.13;23.42;;;15.40;99.90;;;;;;6756878;87;20248;-79
2021/06/23 04:54:34;;;;;;;38.17;22.70;;;15.30;99.90;;;;;;6742295;88;20320;-79
2021/06/23 05:04:34;;;;;;;32.33;20.88;;;15.40;99.90;;;;;;6756206;87;20181;-80
2021/06/23 05:14:35;;;;;;;30.88;21.42;;;15.50;99.90;;;;;;6749130;88;20579;-79
2021/06/23 05:24:39;;;;;;;34.00;21.67;;;15.60;99.90;;;;;;6750599;88;20279;-79
2021/06/23 05:34:39;;;;;;;32.20;20.15;;;15.80;99.90;;;;;;6752455;88;20193;-79
2021/06/23 05:44:40;;;;;;;31.37;20.50;;;15.70;99.90;;;;;;6730658;88;20190;-79
2021/06/23 05:54:40;;;;;;;33.27;20.03;;;15.60;99.90;;;;;;6739947;88;20209;-78
2021/06/23 06:04:41;;;;;;;33.93;19.53;;;15.40;99.90;;;;;;6725510;88;21020;-78
2021/06/23 06:14:41;;;;;;;29.77;18.58;;;15.30;99.90;;;;;;6724398;88;20511;-79
2021/06/23 06:24:42;;;;;;;30.92;19.77;;;15.40;99.90;;;;;;6723783;88;20237;-77
2021/06/23 06:34:43;;;;;;;30.12;19.55;;;15.40;99.90;;;;;;6745955;87;20206;-79
2021/06/23 06:44:44;;;;;;;33.13;20.15;;;15.40;99.90;;;;;;6744253;87;20224;-78
2021/06/23 07:05:46;;;;;;;29.48;19.95;;;15.40;99.90;;;;;;6735137;88;20686;-78
2021/06/23 07:15:47;;;;;;;35.05;18.48;;;15.50;99.90;;;;;;6734197;88;20193;-80
2021/06/23 07:25:47;;;;;;;32.25;19.70;;;15.70;99.90;;;;;;6721423;88;20205;-78
2021/06/23 07:46:07;;;;;;;31.62;20.92;;;15.80;99.90;;;;;;6718690;88;20229;-78
2021/06/23 07:56:09;;;;;;;33.40;21.17;;;15.90;99.90;;;;;;6723786;88;20222;-79
2021/06/23 08:16:31;;;;;;;34.15;22.05;;;16.30;99.90;;;;;;6720606;88;21236;-79
2021/06/23 08:26:31;;;;;;;32.70;20.20;;;16.50;99.90;;;;;;6731419;88;20487;-79
2021/06/23 08:36:32;;;;;;;29.90;20.58;;;16.80;99.90;;;;;;6726877;88;20193;-79
2021/06/23 08:46:36;;;;;;;30.67;19.95;;;17.00;99.90;;;;;;6729176;88;20189;-78
2021/06/23 08:56:37;;;;;;;36.70;23.42;;;17.10;99.90;;;;;;6711546;88;20212;-77
2021/06/23 09:06:55;;;;;;;40.97;25.45;;;17.20;99.90;;;;;;6723201;88;20201;-79
2021/06/23 09:17:04;;;;;;;40.38;27.27;;;17.40;99.90;;;;;;6714128;88;20266;-78
2021/06/23 09:27:19;;;;;;;48.58;29.77;;;17.50;99.90;;;;;;6712377;88;20188;-77
2021/06/23 09:37:32;;;;;;;55.00;31.67;;;17.40;99.90;;;;;;6712800;88;20308;-77
2021/06/23 09:47:35;;;;;;;48.10;29.80;;;17.40;99.90;;;;;;6723608;88;20334;-77
2021/06/23 09:57:40;;;;;;;51.83;29.40;;;17.50;99.90;;;;;;6709178;88;20287;-76
2021/06/23 10:07:48;;;;;;;53.10;28.47;;;17.60;99.90;;;;;;6708232;88;20199;-77
2021/06/23 10:17:49;;;;;;;46.58;27.08;;;17.80;99.90;;;;;;6713280;88;20185;-77
2021/06/23 10:27:51;;;;;;;49.45;29.60;;;18.00;99.90;;;;;;6706447;88;20210;-76
2021/06/23 10:37:53;;;;;;;52.25;30.85;;;18.00;99.90;;;;;;6709373;88;20664;-76
2021/06/23 10:48:01;;;;;;;52.97;31.48;;;17.80;99.90;;;;;;6703006;88;20189;-76
2021/06/23 10:58:10;;;;;;;47.05;29.90;;;17.80;99.90;;;;;;6708996;88;20269;-77
2021/06/23 11:08:27;;;;;;;49.85;29.45;;;18.20;99.90;;;;;;6719081;88;20221;-76
2021/06/23 11:18:37;;;;;;;51.53;30.75;;;18.40;99.90;;;;;;6710952;88;20278;-77
2021/06/23 11:28:38;;;;;;;48.55;29.67;;;18.00;99.90;;;;;;6712050;88;20225;-78
2021/06/23 11:38:39;;;;;;;53.87;31.20;;;17.90;99.90;;;;;;6707445;88;20672;-76
2021/06/23 11:48:41;;;;;;;50.78;30.83;;;18.00;99.90;;;;;;6702654;88;20643;-76
2021/06/23 11:58:42;;;;;;;57.28;31.95;;;18.10;99.90;;;;;;6707980;88;20317;-77
2021/06/23 12:08:42;;;;;;;54.88;32.85;;;18.10;99.90;;;;;;6708875;88;20229;-77
2021/06/23 12:18:43;;;;;;;48.03;30.92;;;18.50;99.90;;;;;;6708913;88;20208;-76
2021/06/23 12:28:43;;;;;;;46.17;28.12;;;18.50;99.90;;;;;;6710779;88;20981;-76
2021/06/23 12:38:44;;;;;;;37.50;25.92;;;18.40;99.90;;;;;;6709548;88;20216;-76
2021/06/23 12:48:44;;;;;;;41.55;27.95;;;18.80;99.90;;;;;;6710807;88;20306;-76
2021/06/23 12:58:45;;;;;;;45.17;28.08;;;19.30;99.90;;;;;;6710271;88;20204;-77
2021/06/23 13:08:46;;;;;;;41.88;28.15;;;19.80;99.90;;;;;;6713214;88;20183;-77
2021/06/23 13:18:46;;;;;;;38.33;25.97;;;20.00;99.90;;;;;;6712251;88;20612;-77
2021/06/23 13:28:47;;;;;;;33.20;23.67;;;20.20;99.90;;;;;;6712496;88;21429;-77
2021/06/23 13:38:48;;;;;;;31.95;23.27;;;21.00;99.90;;;;;;6709766;88;20261;-77
2021/06/23 13:48:48;;;;;;;31.27;22.87;;;22.30;99.90;;;;;;6707289;88;20232;-77
2021/06/23 13:58:49;;;;;;;31.42;23.30;;;23.00;99.90;;;;;;6708063;88;20211;-78
2021/06/23 14:08:50;;;;;;;31.62;22.75;;;23.00;99.90;;;;;;6719440;88;20195;-78
2021/06/23 14:18:51;;;;;;;33.00;23.23;;;22.30;99.90;;;;;;6715403;88;20200;-78
2021/06/23 14:28:53;;;;;;;29.40;21.10;;;21.80;99.90;;;;;;6718492;88;20263;-78
2021/06/23 14:38:54;;;;;;;30.65;18.73;;;21.50;99.90;;;;;;6717153;88;20648;-78
2021/06/23 14:48:55;;;;;;;22.95;14.65;;;21.90;99.90;;;;;;6718704;88;20177;-78
2021/06/23 16:42:51;;;;;;;21.98;11.40;;;23.10;99.90;;;;;;6804378;86;20813;-78
2021/06/23 16:52:52;;;;;;;20.48;10.60;;;23.30;99.90;;;;;;6784026;87;20277;-77
2021/06/23 17:02:53;;;;;;;15.88;10.70;;;23.60;99.90;;;;;;6783725;87;20198;-78
2021/06/23 17:12:53;;;;;;;19.70;10.98;;;23.90;99.90;;;;;;6789007;87;20191;-78
2021/06/23 17:22:54;;;;;;;17.15;10.02;;;24.20;99.90;;;;;;6785153;87;20182;-78
2021/06/23 17:32:55;;;;;;;14.95;10.35;;;24.90;99.90;;;;;;6787995;87;21023;-78
2021/06/23 17:42:56;;;;;;;19.73;10.48;;;23.50;99.90;;;;;;6775241;87;20205;-77
2021/06/23 17:52:57;;;;;;;16.73;10.45;;;22.60;99.90;;;;;;6764361;87;20188;-78
2021/06/23 18:02:57;;;;;;;19.92;10.93;;;22.00;99.90;;;;;;6760078;87;20231;-78
2021/06/23 18:12:58;;;;;;;19.62;10.57;;;21.40;99.90;;;;;;6759950;87;20177;-77
2021/06/23 18:22:59;;;;;;;17.23;10.07;;;21.20;99.90;;;;;;6758195;87;20176;-78
2021/06/23 18:33:00;;;;;;;19.43;9.63;;;21.20;99.90;;;;;;6755517;87;20232;-78
2021/06/23 18:43:02;;;;;;;16.17;10.43;;;20.50;99.90;;;;;;6768563;87;20500;-77
2021/06/23 18:53:03;;;;;;;19.58;11.48;;;20.30;99.90;;;;;;6769129;87;20196;-77
2021/06/23 19:03:04;;;;;;;17.65;10.48;;;19.80;99.90;;;;;;6771515;87;20583;-78
2021/06/23 19:13:05;;;;;;;18.23;11.00;;;19.50;99.90;;;;;;6771710;87;20172;-78
2021/06/23 19:23:05;;;;;;;19.50;10.40;;;19.20;99.90;;;;;;6770632;87;20216;-78
2021/06/23 19:33:06;;;;;;;20.88;11.40;;;18.90;99.90;;;;;;6771984;87;20611;-78
2021/06/23 19:43:07;;;;;;;22.77;11.80;;;18.60;99.90;;;;;;6774472;87;20201;-77
2021/06/23 19:53:08;;;;;;;19.23;10.93;;;18.40;99.90;;;;;;6770617;87;20649;-78
2021/06/23 20:03:10;;;;;;;17.45;10.50;;;18.10;99.90;;;;;;6773285;87;20226;-77
2021/06/23 20:13:10;;;;;;;18.30;11.35;;;17.90;99.90;;;;;;6773072;87;20198;-77
2021/06/23 20:23:11;;;;;;;19.83;11.43;;;17.60;99.90;;;;;;6771246;87;20265;-78
2021/06/23 20:33:11;;;;;;;25.95;12.85;;;17.40;99.90;;;;;;6770136;87;22036;-78
2021/06/23 20:43:12;;;;;;;23.73;13.00;;;17.30;99.90;;;;;;6769649;87;20651;-78
2021/06/23 20:53:13;;;;;;;22.30;12.85;;;17.10;99.90;;;;;;6772071;87;20212;-78
2021/06/23 21:03:17;;;;;;;24.08;13.57;;;17.00;99.90;;;;;;6773525;87;20241;-78
2021/06/23 21:13:19;;;;;;;21.30;13.50;;;17.10;99.90;;;;;;6772765;87;20690;-78
2021/06/23 21:23:25;;;;;;;23.27;13.57;;;16.90;99.90;;;;;;6772149;87;20559;-78
2021/06/23 21:33:31;;;;;;;26.15;14.63;;;16.80;99.90;;;;;;6774392;87;20668;-78
2021/06/23 21:43:32;;;;;;;27.08;15.05;;;16.60;99.90;;;;;;6755525;88;21074;-78
2021/06/23 21:53:39;;;;;;;26.35;14.75;;;16.40;99.90;;;;;;6752691;88;20333;-77
2021/06/23 22:03:40;;;;;;;26.83;15.57;;;16.40;99.90;;;;;;6763870;88;20608;-77
2021/06/23 22:13:42;;;;;;;26.80;15.40;;;16.30;99.90;;;;;;6757726;88;20250;-79
2021/06/23 22:23:43;;;;;;;26.55;15.35;;;16.30;99.90;;;;;;6759808;88;20172;-78
2021/06/23 22:33:44;;;;;;;26.73;15.60;;;16.10;99.90;;;;;;6761947;87;20249;-78
2021/06/23 22:54:08;;;;;;;26.52;15.90;;;16.00;99.90;;;;;;6771873;87;20338;-76
2021/06/23 23:04:09;;;;;;;27.20;16.00;;;15.90;99.90;;;;;;6774387;87;20203;-78
2021/06/23 23:14:11;;;;;;;24.48;16.33;;;15.70;99.90;;;;;;6773844;87;20210;-77
2021/06/23 23:24:13;;;;;;;27.77;17.35;;;15.70;99.90;;;;;;6771966;87;20180;-77
2021/06/23 23:34:15;;;;;;;24.17;16.02;;;15.70;99.90;;;;;;6772679;87;20212;-77
2021/06/23 23:44:16;;;;;;;25.60;16.12;;;15.50;99.90;;;;;;6773046;87;20220;-77
2021/06/23 23:54:16;;;;;;;24.70;15.18;;;15.30;99.90;;;;;;6774267;87;20766;-78
